메인 페이지
METAR-TAF:

METAR-TAF

공항 :

주노, 알래스카, 미국

위도: 58-21-17N, 경도: 134-34-34W, 고도: 6m

현재 날씨관측

예보는 27분 전, 04:28시(UTC)에 발표되었습니다.
동남동3kt
온도 1°C
습도 100%
기압 1003 hPa
시정: 3.2km
고도 200ft 상공 구름 많음
고도 1300ft 상공 흐림
박무

METAR: PAJN 200428Z 11003KT 2SM BR BKN002 OVC013 01/01 A2961 RMK AO2 T00060006

시각: 19:55 (04:55 UTC)

예보

예보는 3 시간 42분 전, 01:13시(UTC)에 발표되었습니다.
예보 대상 시간: 20일 01시부터 20일 24시까지 (UTC)
kt
시정: 6.4km
고도 400ft 상공 구름 많음
고도 1300ft 상공 흐림
약한소나기, 박무
일시적
20일 01시부터 20일 04시까지 (UTC)
시정: 3.2km
약한비, 박무
20일 0600시부터 (UTC)
kt
시정: 10km
고도 1500ft 상공 구름 많음
고도 3500ft 상공 흐림
시계 내 소나기
일시적
20일 06시부터 20일 10시까지 (UTC)
시정: 4.8km
고도 400ft 상공 구름 보통
고도 1100ft 상공 흐림
(약한) 결빙, 이슬비
20일 1000시부터 (UTC)
kt
시정: 3.2km
고도 400ft 상공 구름 많음
고도 1100ft 상공 흐림
박무
20일 1400시부터 (UTC)
3kt
시정: 4.8km
고도 400ft 상공 구름 조금
고도 5000ft 상공 흐림
박무
20일 1900시부터 (UTC)
4kt
시정: 9.7km
고도 1500ft 상공 구름 많음
고도 4000ft 상공 흐림
박무

TAF: PAJN 200113Z 2001/2024 00000KT 4SM -SHRA BR BKN004 OVC013 TEMPO 2001/2004 2SM -RA BR FM200600 00000KT P6SM VCSH BKN015 OVC035 TEMPO 2006/2010 3SM -FZDZ SCT004 OVC011 FM201000 00000KT 2SM BR BKN004 OVC011 FM201400 08003KT 3SM BR FEW004 OVC050 FM201900 09004KT 6SM BR BKN015 OVC040

4,000개 이상의 공항 관측 자료 및 예보 (METAR 및 TAF 보고).

지도상에서 검색 가능한 기상관측소가 노란 점과 빨간 점으로 표시되어 있습니다.

기상관측소 명을 보려면 표시 위로 마우스를 이동하세요.

날씨 관측과 예보를 보려면 클릭하세요.

지도 변경 : 확대하려면 엑스 표시가 있는 녹색 버튼, 축소하려면 빼기 표시가 있는 녹색 버튼, 다음 페이지의 지도를 보려면 녹색 화살표를 클릭하세요.


METAR-TAF: